sensor_id;sensor_type;location;lat;lon;timestamp;pressure;altitude;pressure_sealevel;temperature;humidity
63351;BME280;64988;51.058;17.040;2023-03-21T00:04:30;100146.88;;;13.88;66.16
63351;BME280;64988;51.058;17.040;2023-03-21T00:10:16;100147.16;;;13.85;66.65
63351;BME280;64988;51.058;17.040;2023-03-21T00:16:20;100146.72;;;13.89;66.25
63351;BME280;64988;51.058;17.040;2023-03-21T00:21:57;100121.44;;;13.89;66.14
63351;BME280;64988;51.058;17.040;2023-03-21T00:27:44;100125.59;;;13.83;66.23
63351;BME280;64988;51.058;17.040;2023-03-21T00:33:32;100126.47;;;13.74;66.15
63351;BME280;64988;51.058;17.040;2023-03-21T00:39:03;100120.34;;;13.72;66.48
63351;BME280;64988;51.058;17.040;2023-03-21T00:44:32;100116.06;;;13.70;66.56
63351;BME280;64988;51.058;17.040;2023-03-21T00:50:03;100116.91;;;13.70;66.30
63351;BME280;64988;51.058;17.040;2023-03-21T00:55:31;100118.50;;;13.73;66.30
63351;BME280;64988;51.058;17.040;2023-03-21T01:00:59;100112.47;;;13.79;66.39
63351;BME280;64988;51.058;17.040;2023-03-21T01:06:29;100105.88;;;13.91;66.38
63351;BME280;64988;51.058;17.040;2023-03-21T01:11:57;100119.41;;;14.00;66.00
63351;BME280;64988;51.058;17.040;2023-03-21T01:17:25;100137.03;;;13.48;68.45
63351;BME280;64988;51.058;17.040;2023-03-21T01:22:52;100129.34;;;13.73;66.98
63351;BME280;64988;51.058;17.040;2023-03-21T01:28:20;100116.50;;;13.65;65.74
63351;BME280;64988;51.058;17.040;2023-03-21T01:33:48;100103.78;;;13.65;64.89
63351;BME280;64988;51.058;17.040;2023-03-21T01:39:16;100098.22;;;13.57;64.04
63351;BME280;64988;51.058;17.040;2023-03-21T01:44:59;100095.19;;;13.70;63.86
63351;BME280;64988;51.058;17.040;2023-03-21T01:50:36;100093.63;;;13.67;63.21
63351;BME280;64988;51.058;17.040;2023-03-21T01:56:30;100104.78;;;13.64;63.08
63351;BME280;64988;51.058;17.040;2023-03-21T02:02:04;100101.22;;;13.45;63.38
63351;BME280;64988;51.058;17.040;2023-03-21T02:07:44;100102.38;;;13.33;63.41
63351;BME280;64988;51.058;17.040;2023-03-21T02:13:16;100118.34;;;13.17;63.80
63351;BME280;64988;51.058;17.040;2023-03-21T02:36:49;100114.94;;;13.14;64.61
63351;BME280;64988;51.058;17.040;2023-03-21T02:42:36;100112.38;;;13.13;64.76
63351;BME280;64988;51.058;17.040;2023-03-21T02:48:23;100118.94;;;13.20;65.11
63351;BME280;64988;51.058;17.040;2023-03-21T02:54:09;100120.09;;;13.18;65.44
63351;BME280;64988;51.058;17.040;2023-03-21T02:59:58;100120.38;;;13.14;65.82
63351;BME280;64988;51.058;17.040;2023-03-21T03:05:47;100118.47;;;13.15;65.88
63351;BME280;64988;51.058;17.040;2023-03-21T03:11:34;100115.94;;;13.23;65.61
63351;BME280;64988;51.058;17.040;2023-03-21T03:28:52;100128.50;;;13.24;65.66
63351;BME280;64988;51.058;17.040;2023-03-21T03:34:24;100120.66;;;13.21;65.50
63351;BME280;64988;51.058;17.040;2023-03-21T03:45:49;100128.16;;;13.08;65.97
63351;BME280;64988;51.058;17.040;2023-03-21T03:57:39;100117.94;;;13.31;64.73
63351;BME280;64988;51.058;17.040;2023-03-21T04:03:07;100132.78;;;13.27;65.07
63351;BME280;64988;51.058;17.040;2023-03-21T04:08:36;100135.50;;;13.27;64.98
63351;BME280;64988;51.058;17.040;2023-03-21T04:14:04;100140.91;;;13.27;64.84
63351;BME280;64988;51.058;17.040;2023-03-21T04:19:32;100137.63;;;13.23;65.23
63351;BME280;64988;51.058;17.040;2023-03-21T04:25:00;100133.91;;;13.24;65.23
63351;BME280;64988;51.058;17.040;2023-03-21T04:30:30;100141.19;;;13.24;65.08
63351;BME280;64988;51.058;17.040;2023-03-21T04:36:11;100136.63;;;13.24;65.02
63351;BME280;64988;51.058;17.040;2023-03-21T04:41:53;100144.59;;;13.16;65.37
63351;BME280;64988;51.058;17.040;2023-03-21T04:47:21;100147.47;;;13.24;65.08
63351;BME280;64988;51.058;17.040;2023-03-21T04:52:49;100149.59;;;13.21;65.25
63351;BME280;64988;51.058;17.040;2023-03-21T04:58:18;100148.03;;;13.18;65.13
63351;BME280;64988;51.058;17.040;2023-03-21T05:03:46;100147.19;;;13.18;65.10
63351;BME280;64988;51.058;17.040;2023-03-21T05:09:14;100146.91;;;13.21;65.21
63351;BME280;64988;51.058;17.040;2023-03-21T05:14:42;100149.97;;;13.06;65.81
63351;BME280;64988;51.058;17.040;2023-03-21T05:20:10;100155.44;;;13.16;65.50
63351;BME280;64988;51.058;17.040;2023-03-21T05:25:38;100156.00;;;13.20;65.70
63351;BME280;64988;51.058;17.040;2023-03-21T05:31:17;100158.59;;;13.31;65.10
63351;BME280;64988;51.058;17.040;2023-03-21T05:36:48;100162.31;;;13.39;65.07
63351;BME280;64988;51.058;17.040;2023-03-21T05:42:17;100169.00;;;13.45;64.48
63351;BME280;64988;51.058;17.040;2023-03-21T05:47:45;100169.47;;;13.59;64.60
63351;BME280;64988;51.058;17.040;2023-03-21T05:53:13;100169.72;;;13.76;64.38
63351;BME280;64988;51.058;17.040;2023-03-21T05:58:40;100169.69;;;14.04;63.30
63351;BME280;64988;51.058;17.040;2023-03-21T06:04:09;100181.22;;;14.16;62.99
63351;BME280;64988;51.058;17.040;2023-03-21T06:09:38;100181.69;;;14.11;62.99
63351;BME280;64988;51.058;17.040;2023-03-21T06:15:07;100186.53;;;14.08;62.78
63351;BME280;64988;51.058;17.040;2023-03-21T06:20:43;100185.75;;;14.35;62.57
63351;BME280;64988;51.058;17.040;2023-03-21T06:26:11;100185.00;;;14.52;62.14
63351;BME280;64988;51.058;17.040;2023-03-21T06:31:39;100185.25;;;14.58;61.75
63351;BME280;64988;51.058;17.040;2023-03-21T06:37:07;100180.66;;;14.68;61.00
63351;BME280;64988;51.058;17.040;2023-03-21T06:42:36;100185.13;;;14.87;60.45
63351;BME280;64988;51.058;17.040;2023-03-21T06:48:09;100190.16;;;15.09;59.33
63351;BME280;64988;51.058;17.040;2023-03-21T06:53:55;100195.75;;;15.08;58.77
63351;BME280;64988;51.058;17.040;2023-03-21T06:59:34;100202.19;;;15.07;58.18
63351;BME280;64988;51.058;17.040;2023-03-21T07:05:18;100207.78;;;15.05;57.48
63351;BME280;64988;51.058;17.040;2023-03-21T07:10:46;100214.59;;;14.92;57.19
63351;BME280;64988;51.058;17.040;2023-03-21T07:16:16;100221.25;;;14.70;56.77
63351;BME280;64988;51.058;17.040;2023-03-21T07:21:44;100219.28;;;14.62;57.30
63351;BME280;64988;51.058;17.040;2023-03-21T07:27:11;100225.00;;;14.59;57.61
63351;BME280;64988;51.058;17.040;2023-03-21T07:32:39;100228.69;;;14.68;58.38
63351;BME280;64988;51.058;17.040;2023-03-21T07:38:07;100238.56;;;14.69;58.88
63351;BME280;64988;51.058;17.040;2023-03-21T07:43:35;100231.25;;;14.79;58.63
63351;BME280;64988;51.058;17.040;2023-03-21T07:49:08;100234.31;;;14.94;59.93
63351;BME280;64988;51.058;17.040;2023-03-21T07:54:36;100242.66;;;15.10;59.66
63351;BME280;64988;51.058;17.040;2023-03-21T08:00:05;100235.31;;;15.20;59.01
63351;BME280;64988;51.058;17.040;2023-03-21T08:05:38;100247.84;;;15.31;59.30
63351;BME280;64988;51.058;17.040;2023-03-21T08:11:07;100247.00;;;15.30;58.81
63351;BME280;64988;51.058;17.040;2023-03-21T08:16:35;100244.81;;;15.34;58.27
63351;BME280;64988;51.058;17.040;2023-03-21T08:22:03;100246.31;;;15.73;57.73
63351;BME280;64988;51.058;17.040;2023-03-21T08:27:33;100242.53;;;16.27;56.42
63351;BME280;64988;51.058;17.040;2023-03-21T08:33:01;100250.41;;;16.82;52.00
63351;BME280;64988;51.058;17.040;2023-03-21T08:38:29;100253.59;;;17.45;51.67
63351;BME280;64988;51.058;17.040;2023-03-21T08:43:59;100252.47;;;17.55;49.86
63351;BME280;64988;51.058;17.040;2023-03-21T08:49:27;100256.41;;;17.69;49.21
63351;BME280;64988;51.058;17.040;2023-03-21T08:54:55;100264.41;;;17.62;48.87
63351;BME280;64988;51.058;17.040;2023-03-21T09:00:22;100266.19;;;17.96;48.32
63351;BME280;64988;51.058;17.040;2023-03-21T09:05:52;100278.13;;;17.95;47.80
63351;BME280;64988;51.058;17.040;2023-03-21T09:11:20;100275.25;;;18.04;48.11
63351;BME280;64988;51.058;17.040;2023-03-21T09:16:48;100284.31;;;18.29;47.30
63351;BME280;64988;51.058;17.040;2023-03-21T09:22:16;100281.72;;;18.19;47.13
63351;BME280;64988;51.058;17.040;2023-03-21T09:27:44;100287.38;;;18.10;47.62
63351;BME280;64988;51.058;17.040;2023-03-21T09:33:12;100288.38;;;17.93;47.29
63351;BME280;64988;51.058;17.040;2023-03-21T09:38:45;100282.81;;;18.51;47.02
63351;BME280;64988;51.058;17.040;2023-03-21T09:44:17;100282.28;;;18.55;46.35
63351;BME280;64988;51.058;17.040;2023-03-21T09:50:16;100278.09;;;19.55;44.02
63351;BME280;64988;51.058;17.040;2023-03-21T09:55:46;100283.72;;;20.75;42.34
63351;BME280;64988;51.058;17.040;2023-03-21T10:01:30;100281.06;;;21.19;40.04
63351;BME280;64988;51.058;17.040;2023-03-21T10:07:10;100281.03;;;21.48;38.69
63351;BME280;64988;51.058;17.040;2023-03-21T10:12:46;100275.28;;;21.93;37.54
63351;BME280;64988;51.058;17.040;2023-03-21T10:18:23;100274.09;;;22.03;37.93
63351;BME280;64988;51.058;17.040;2023-03-21T10:23:53;100274.94;;;22.67;36.79
63351;BME280;64988;51.058;17.040;2023-03-21T10:29:29;100269.81;;;22.64;34.46
63351;BME280;64988;51.058;17.040;2023-03-21T10:34:59;100279.19;;;23.31;34.77
63351;BME280;64988;51.058;17.040;2023-03-21T10:40:28;100270.44;;;23.56;33.86
63351;BME280;64988;51.058;17.040;2023-03-21T10:45:56;100273.16;;;24.03;32.30
63351;BME280;64988;51.058;17.040;2023-03-21T10:51:29;100273.44;;;24.15;32.06
63351;BME280;64988;51.058;17.040;2023-03-21T10:57:03;100277.47;;;22.68;32.49
63351;BME280;64988;51.058;17.040;2023-03-21T11:02:36;100277.19;;;23.12;32.81
63351;BME280;64988;51.058;17.040;2023-03-21T11:08:14;100272.94;;;23.10;32.79
63351;BME280;64988;51.058;17.040;2023-03-21T11:13:43;100257.81;;;22.99;32.78
63351;BME280;64988;51.058;17.040;2023-03-21T11:19:14;100260.13;;;22.95;32.06
63351;BME280;64988;51.058;17.040;2023-03-21T11:24:49;100258.00;;;22.97;32.06
63351;BME280;64988;51.058;17.040;2023-03-21T11:30:24;100260.22;;;22.32;32.05
63351;BME280;64988;51.058;17.040;2023-03-21T11:35:58;100248.16;;;22.33;33.25
63351;BME280;64988;51.058;17.040;2023-03-21T11:41:30;100244.91;;;22.02;32.80
63351;BME280;64988;51.058;17.040;2023-03-21T11:46:58;100246.53;;;21.60;34.01
63351;BME280;64988;51.058;17.040;2023-03-21T11:52:40;100238.69;;;22.14;34.05
63351;BME280;64988;51.058;17.040;2023-03-21T12:09:40;100240.22;;;21.81;33.94
63351;BME280;64988;51.058;17.040;2023-03-21T12:15:25;100220.59;;;21.84;34.59
63351;BME280;64988;51.058;17.040;2023-03-21T12:21:19;100217.03;;;22.05;33.40
63351;BME280;64988;51.058;17.040;2023-03-21T12:27:10;100208.47;;;21.78;34.17
63351;BME280;64988;51.058;17.040;2023-03-21T12:38:23;100197.31;;;22.50;33.16
63351;BME280;64988;51.058;17.040;2023-03-21T12:44:12;100189.56;;;22.60;32.80
63351;BME280;64988;51.058;17.040;2023-03-21T12:50:04;100184.09;;;22.94;32.44
63351;BME280;64988;51.058;17.040;2023-03-21T12:55:36;100176.22;;;22.85;31.10
63351;BME280;64988;51.058;17.040;2023-03-21T13:01:08;100173.22;;;22.52;31.60
63351;BME280;64988;51.058;17.040;2023-03-21T13:06:38;100168.31;;;22.75;32.64
63351;BME280;64988;51.058;17.040;2023-03-21T13:12:35;100165.66;;;22.33;32.08
63351;BME280;64988;51.058;17.040;2023-03-21T13:18:24;100161.38;;;22.24;32.68
63351;BME280;64988;51.058;17.040;2023-03-21T13:24:01;100149.69;;;21.94;33.06
63351;BME280;64988;51.058;17.040;2023-03-21T13:29:50;100148.94;;;22.28;34.63
63351;BME280;64988;51.058;17.040;2023-03-21T13:35:35;100132.34;;;22.49;32.20
63351;BME280;64988;51.058;17.040;2023-03-21T13:41:14;100135.50;;;22.74;32.85
63351;BME280;64988;51.058;17.040;2023-03-21T13:47:00;100133.25;;;22.84;31.99
63351;BME280;64988;51.058;17.040;2023-03-21T13:52:30;100123.06;;;22.84;31.92
63351;BME280;64988;51.058;17.040;2023-03-21T13:57:58;100133.16;;;23.12;30.83
63351;BME280;64988;51.058;17.040;2023-03-21T14:03:29;100128.22;;;22.94;31.75
63351;BME280;64988;51.058;17.040;2023-03-21T14:09:00;100126.94;;;22.62;30.72
63351;BME280;64988;51.058;17.040;2023-03-21T14:14:37;100124.97;;;22.22;32.00
63351;BME280;64988;51.058;17.040;2023-03-21T14:20:15;100116.13;;;22.26;32.22
63351;BME280;64988;51.058;17.040;2023-03-21T14:25:45;100116.88;;;21.71;32.68
63351;BME280;64988;51.058;17.040;2023-03-21T14:31:18;100118.78;;;21.50;33.79
63351;BME280;64988;51.058;17.040;2023-03-21T14:36:47;100106.16;;;21.34;34.22
63351;BME280;64988;51.058;17.040;2023-03-21T14:42:25;100101.97;;;21.02;34.99
63351;BME280;64988;51.058;17.040;2023-03-21T14:48:04;100095.50;;;20.74;35.20
63351;BME280;64988;51.058;17.040;2023-03-21T14:53:36;100095.91;;;20.41;35.81
63351;BME280;64988;51.058;17.040;2023-03-21T14:59:04;100089.41;;;20.20;36.41
63351;BME280;64988;51.058;17.040;2023-03-21T15:04:33;100083.59;;;19.85;36.90
63351;BME280;64988;51.058;17.040;2023-03-21T15:10:05;100080.84;;;19.85;38.38
63351;BME280;64988;51.058;17.040;2023-03-21T15:15:35;100072.19;;;19.97;37.52
63351;BME280;64988;51.058;17.040;2023-03-21T15:21:10;100082.41;;;20.03;37.05
63351;BME280;64988;51.058;17.040;2023-03-21T15:26:43;100085.94;;;19.74;37.35
63351;BME280;64988;51.058;17.040;2023-03-21T15:32:20;100091.31;;;19.67;37.63
63351;BME280;64988;51.058;17.040;2023-03-21T15:37:53;100078.03;;;19.56;37.46
63351;BME280;64988;51.058;17.040;2023-03-21T15:43:22;100074.03;;;19.13;38.54
63351;BME280;64988;51.058;17.040;2023-03-21T15:54:46;100065.44;;;18.63;39.37
63351;BME280;64988;51.058;17.040;2023-03-21T16:06:20;100060.66;;;18.10;40.55
63351;BME280;64988;51.058;17.040;2023-03-21T16:11:56;100066.00;;;17.79;41.46
63351;BME280;64988;51.058;17.040;2023-03-21T16:17:31;100058.53;;;17.57;42.04
63351;BME280;64988;51.058;17.040;2023-03-21T16:23:04;100066.50;;;17.42;42.54
63351;BME280;64988;51.058;17.040;2023-03-21T16:28:31;100071.91;;;17.10;43.24
63351;BME280;64988;51.058;17.040;2023-03-21T16:33:58;100079.03;;;16.87;44.43
63351;BME280;64988;51.058;17.040;2023-03-21T16:39:27;100075.38;;;16.62;45.12
63351;BME280;64988;51.058;17.040;2023-03-21T16:44:55;100068.56;;;16.32;45.64
63351;BME280;64988;51.058;17.040;2023-03-21T16:50:35;100070.53;;;16.14;45.73
63351;BME280;64988;51.058;17.040;2023-03-21T16:56:04;100074.06;;;16.06;46.17
63351;BME280;64988;51.058;17.040;2023-03-21T17:01:33;100075.19;;;15.70;47.03
63351;BME280;64988;51.058;17.040;2023-03-21T17:07:09;100073.31;;;15.70;47.18
63351;BME280;64988;51.058;17.040;2023-03-21T17:12:44;100074.47;;;15.68;47.79
63351;BME280;64988;51.058;17.040;2023-03-21T17:18:11;100079.38;;;15.64;47.79
63351;BME280;64988;51.058;17.040;2023-03-21T17:23:39;100077.16;;;15.60;48.04
63351;BME280;64988;51.058;17.040;2023-03-21T17:29:09;100071.00;;;15.40;49.58
63351;BME280;64988;51.058;17.040;2023-03-21T17:34:36;100060.00;;;15.24;50.08
63351;BME280;64988;51.058;17.040;2023-03-21T17:40:10;100067.44;;;15.04;50.01
63351;BME280;64988;51.058;17.040;2023-03-21T17:45:39;100075.88;;;14.84;52.63
63351;BME280;64988;51.058;17.040;2023-03-21T17:51:07;100082.00;;;14.68;56.31
63351;BME280;64988;51.058;17.040;2023-03-21T17:56:38;100076.63;;;14.58;56.96
63351;BME280;64988;51.058;17.040;2023-03-21T18:02:07;100087.66;;;14.57;57.81
63351;BME280;64988;51.058;17.040;2023-03-21T18:07:35;100082.59;;;14.62;57.94
63351;BME280;64988;51.058;17.040;2023-03-21T18:13:23;100086.38;;;14.51;58.49
63351;BME280;64988;51.058;17.040;2023-03-21T18:18:51;100087.53;;;14.49;58.86
63351;BME280;64988;51.058;17.040;2023-03-21T18:24:20;100091.13;;;14.49;58.15
63351;BME280;64988;51.058;17.040;2023-03-21T18:29:47;100090.69;;;14.44;58.73
63351;BME280;64988;51.058;17.040;2023-03-21T18:35:35;100089.69;;;14.45;58.86
63351;BME280;64988;51.058;17.040;2023-03-21T18:41:03;100084.88;;;14.39;59.11
63351;BME280;64988;51.058;17.040;2023-03-21T18:46:32;100085.47;;;14.33;59.36
63351;BME280;64988;51.058;17.040;2023-03-21T18:51:59;100082.22;;;14.20;59.57
63351;BME280;64988;51.058;17.040;2023-03-21T18:57:27;100078.03;;;14.26;59.50
63351;BME280;64988;51.058;17.040;2023-03-21T19:03:04;100074.69;;;14.04;60.13
63351;BME280;64988;51.058;17.040;2023-03-21T19:08:45;100065.88;;;13.93;60.83
63351;BME280;64988;51.058;17.040;2023-03-21T19:14:14;100066.41;;;14.06;60.27
63351;BME280;64988;51.058;17.040;2023-03-21T19:19:42;100061.00;;;13.96;60.63
63351;BME280;64988;51.058;17.040;2023-03-21T19:25:11;100066.56;;;14.04;60.58
63351;BME280;64988;51.058;17.040;2023-03-21T19:30:39;100069.66;;;14.09;60.19
63351;BME280;64988;51.058;17.040;2023-03-21T19:36:16;100055.66;;;14.14;60.17
63351;BME280;64988;51.058;17.040;2023-03-21T19:41:49;100064.09;;;14.11;60.93
63351;BME280;64988;51.058;17.040;2023-03-21T19:47:19;100058.50;;;14.12;60.31
63351;BME280;64988;51.058;17.040;2023-03-21T19:52:48;100054.63;;;14.25;59.74
63351;BME280;64988;51.058;17.040;2023-03-21T19:58:17;100055.63;;;14.24;60.05
63351;BME280;64988;51.058;17.040;2023-03-21T20:03:49;100061.44;;;14.29;59.93
63351;BME280;64988;51.058;17.040;2023-03-21T20:09:17;100058.31;;;14.33;59.86
63351;BME280;64988;51.058;17.040;2023-03-21T20:15:05;100060.16;;;14.33;60.04
63351;BME280;64988;51.058;17.040;2023-03-21T20:20:44;100043.91;;;14.23;60.08
63351;BME280;64988;51.058;17.040;2023-03-21T20:26:12;100045.25;;;13.73;61.40
63351;BME280;64988;51.058;17.040;2023-03-21T20:31:41;100039.78;;;13.17;62.98
63351;BME280;64988;51.058;17.040;2023-03-21T20:37:10;100050.56;;;12.88;63.76
63351;BME280;64988;51.058;17.040;2023-03-21T20:42:39;100047.94;;;12.57;64.28
63351;BME280;64988;51.058;17.040;2023-03-21T20:48:07;100041.22;;;12.42;65.09
63351;BME280;64988;51.058;17.040;2023-03-21T20:53:35;100028.59;;;12.13;66.78
63351;BME280;64988;51.058;17.040;2023-03-21T20:59:03;100035.16;;;12.10;67.50
63351;BME280;64988;51.058;17.040;2023-03-21T21:04:46;100033.94;;;12.24;67.34
63351;BME280;64988;51.058;17.040;2023-03-21T21:10:37;100030.97;;;12.36;66.74
63351;BME280;64988;51.058;17.040;2023-03-21T21:16:25;100028.88;;;12.49;66.04
63351;BME280;64988;51.058;17.040;2023-03-21T21:21:54;100016.31;;;12.48;66.90
63351;BME280;64988;51.058;17.040;2023-03-21T21:27:22;100001.94;;;12.57;66.03
63351;BME280;64988;51.058;17.040;2023-03-21T21:32:50;100009.19;;;12.57;66.23
63351;BME280;64988;51.058;17.040;2023-03-21T21:38:19;100010.78;;;12.59;65.97
63351;BME280;64988;51.058;17.040;2023-03-21T21:43:47;100007.34;;;12.67;65.87
63351;BME280;64988;51.058;17.040;2023-03-21T21:49:15;100011.78;;;12.78;65.24
63351;BME280;64988;51.058;17.040;2023-03-21T21:54:43;100012.38;;;12.91;64.86
63351;BME280;64988;51.058;17.040;2023-03-21T22:00:12;100011.66;;;12.89;65.06
63351;BME280;64988;51.058;17.040;2023-03-21T22:05:40;100011.50;;;12.90;64.94
63351;BME280;64988;51.058;17.040;2023-03-21T22:11:10;100016.06;;;12.90;64.79
63351;BME280;64988;51.058;17.040;2023-03-21T22:16:38;100002.09;;;12.85;64.96
63351;BME280;64988;51.058;17.040;2023-03-21T22:22:05;99995.81;;;12.84;64.92
63351;BME280;64988;51.058;17.040;2023-03-21T22:27:32;99999.53;;;12.83;64.81
63351;BME280;64988;51.058;17.040;2023-03-21T22:33:00;99992.84;;;12.78;65.18
63351;BME280;64988;51.058;17.040;2023-03-21T22:38:35;99982.41;;;12.83;65.31
63351;BME280;64988;51.058;17.040;2023-03-21T22:44:04;99982.28;;;12.75;65.15
63351;BME280;64988;51.058;17.040;2023-03-21T22:49:32;99986.72;;;12.76;65.27
63351;BME280;64988;51.058;17.040;2023-03-21T22:55:00;99979.28;;;12.78;65.06
63351;BME280;64988;51.058;17.040;2023-03-21T23:00:27;99982.00;;;12.78;65.18
63351;BME280;64988;51.058;17.040;2023-03-21T23:05:58;99972.88;;;12.79;65.36
63351;BME280;64988;51.058;17.040;2023-03-21T23:11:26;99972.72;;;12.80;64.77
63351;BME280;64988;51.058;17.040;2023-03-21T23:16:53;99965.47;;;12.71;65.41
63351;BME280;64988;51.058;17.040;2023-03-21T23:22:20;99966.31;;;12.72;65.24
63351;BME280;64988;51.058;17.040;2023-03-21T23:27:48;99963.72;;;12.51;66.42
63351;BME280;64988;51.058;17.040;2023-03-21T23:33:16;99966.91;;;12.66;65.53
63351;BME280;64988;51.058;17.040;2023-03-21T23:38:44;99969.31;;;12.59;65.87
63351;BME280;64988;51.058;17.040;2023-03-21T23:44:11;99968.88;;;12.54;65.90
63351;BME280;64988;51.058;17.040;2023-03-21T23:49:39;99967.03;;;12.64;65.59
63351;BME280;64988;51.058;17.040;2023-03-21T23:55:07;99957.06;;;12.64;65.48
